Bandaranaike International Colombo Airport
VCBI : now visible

Airfield :











YOU CAN JOIN US ON...

 
LOGIN :

Register | Disclaimer

   EN    FR    IT 

 









Legend :    VFR   Marginal VFR   IFR   Intensive IFR   Very Intensive IFR
Visi :
Ceiling :
>= 8 km
>= 3000ft
5 to 8 km
1000 to 3000 ft
1500m to 5 km
500 to 1000 ft
800 to 1500m
200 to 500 ft
< 800m
< 200 ft
Symbols :   Thunderstorms  Fog  Heavy snow  Heavy precipitations  Wind > 20 kt







- Airport Elevation : 30 ft
- IATA code : CMB


VCBI - Bandaranaike International Colombo

CURRENT METAR :
  • 161210Z 23012KT 9999 SCT018 FEW020CB 30/26 Q1008 NOSIG RMK E/NE/N/NW

EXPIRED METARs :
  • 161110Z 24010KT 9999 SCT018 FEW020CB 30/26 Q1008 NOSIG RMK SE
  • 161010Z 22014KT 9999 SCT018 31/27 Q1008 NOSIG

TAF TAF VCBI
Valid from the 16 at 12:00 until the 17 at 18:00 UTC


161100Z 1612/1718 23010KT 9999 SCT018 TX31/1707Z TN25/1700Z
PROB30
TEMPO 1612/1615 1623/1702 6000 -TSRA/SHRA FEW012 BKN016 FEW020CB
VCCC FIR / Asia



MET'MAP, your aeronautical weather chart ! - Copyright ORBIFLY December 2007 - Disclaimer

ORBIFLY MET'MAP TEAM :

Programming & Development : Alexandra Zaïnal
Concept & Development : Baudouin d'Aumeries
Co-Development & Prog : Marc-Olivier Méhu
Technical & hardware support : Manuel Goepfert

Contact : metmap@orbifly.com




SOURCES & CREDITS :

   NOAA       Earth
Advisory